Andersen AFB, Guam
Current Conditions -  °F | °C
As of 3:33 PM on Thursday 23 Oct 2014 (Local Time) from PGUA Reporting Station
Overcast Overcast  
Wind Chill: 82°   Ceiling: 2100
Heat Index: 91°   Visibility: 10mi
Dew Point: 77°   Wind: 13mph
Humidity: 84%   Direction: 50°NE
Pressure: 29.77"   Gusts: NA
Location:  13.58°N, 144.92°E
Report Text: PGUA 230533Z AUTO 05011KT 10SM SCT016 BKN021 BKN031 OVC044 28/25 A2977 RMK AO2 CIG 021V032 BKN021 V SCT $
Loading
Personal Weather Stations






























Interactive Weather Map
Tropical Storm Tracking
New forecast layout! Learn more

10-Day Weather Forecast

Advertisements
Track Severe Weather on mobile